EST,Max TemperatureF,Mean TemperatureF,Min TemperatureF,Max Dew PointF,MeanDew PointF,Min DewpointF,Max Humidity, Mean Humidity, Min Humidity, Max Sea Level PressureIn, Mean Sea Level PressureIn, Min Sea Level PressureIn, Max VisibilityMiles, Mean VisibilityMiles, Min VisibilityMiles, Max Wind SpeedMPH, Mean Wind SpeedMPH, Max Gust SpeedMPH,PrecipitationIn, CloudCover, Events, WindDirDegrees
2013-2-1,66,48,30,34,28,21,86,59,18,30.38,30.30,30.26,10,10,10,12,2,18,0.00,0,,344
2013-2-2,68,49,30,36,27,21,86,49,24,30.35,30.27,30.18,10,10,10,12,3,,0.00,0,,3
2013-2-3,69,50,32,46,31,23,87,60,17,30.22,30.15,30.08,10,10,10,14,2,17,0.00,0,,292
2013-2-4,66,50,33,41,31,27,93,59,26,30.15,30.11,30.08,10,10,10,9,1,,0.00,0,,222
2013-2-5,73,53,33,52,38,27,87,66,37,30.12,30.06,30.02,10,10,10,12,1,,0.00,2,,296
2013-2-6,73,65,57,59,55,50,88,77,53,30.15,30.09,30.06,10,10,7,9,3,,0.01,7,,55
2013-2-7,78,69,60,64,61,57,94,86,54,30.10,29.99,29.88,10,10,1,18,5,22,0.00,3,Rain-Thunderstorm,182
2013-2-8,75,64,53,64,57,52,94,83,50,30.11,30.00,29.90,10,10,5,14,8,22,0.00,3,,287
2013-2-9,73,60,48,52,47,45,94,75,41,30.25,30.18,30.10,10,10,7,10,4,16,0.00,0,,33
2013-2-10,77,62,48,55,51,45,93,72,44,30.29,30.22,30.17,10,10,10,12,4,16,0.00,1,,109
2013-2-11,80,70,59,63,58,55,94,77,45,30.21,30.15,30.08,10,9,1,16,5,21,0.00,1,,181
2013-2-12,82,70,57,66,61,55,100,86,48,30.10,30.03,29.94,10,6,0,14,4,22,0.00,4,Fog,207
2013-2-13,75,68,62,68,64,57,94,84,77,29.98,29.91,29.85,10,9,5,21,12,25,0.00,8,Rain,230
2013-2-14,62,56,51,57,52,48,88,83,72,30.11,30.01,29.95,10,10,5,10,5,,0.02,7,Rain,339
2013-2-15,68,55,42,48,42,37,94,74,33,30.12,30.04,29.98,10,10,6,9,6,,0.02,2,,15
2013-2-16,62,52,42,46,35,18,87,65,34,30.18,30.02,29.96,10,10,7,18,4,25,0.00,1,,306
2013-2-17,53,42,30,21,17,9,69,46,16,30.38,30.28,30.19,10,10,10,12,6,18,0.00,0,,331
2013-2-18,66,45,24,43,28,18,86,66,26,30.41,30.33,30.25,10,10,10,9,1,,0.00,0,,95
2013-2-19,77,59,41,57,47,37,87,74,39,30.25,30.16,30.07,10,10,10,20,3,32,0.00,2,,207
2013-2-20,71,61,51,59,47,34,94,69,34,30.18,30.12,30.06,10,9,1,12,4,,0.00,3,,7
2013-2-21,80,63,46,57,49,41,87,74,45,30.14,30.08,30.00,10,10,10,12,3,,0.00,1,,55
2013-2-22,84,72,59,64,55,37,94,68,19,30.09,30.05,29.99,10,10,10,13,2,22,0.00,3,,206
2013-2-23,82,72,62,64,60,54,88,71,48,30.02,29.96,29.90,10,9,5,17,7,25,0.00,4,,208
2013-2-24,75,70,64,66,61,54,88,74,57,29.99,29.93,29.88,10,8,3,10,7,17,0.00,6,,200
2013-2-25,84,72,60,63,57,55,88,70,37,29.93,29.86,29.79,10,10,3,16,3,18,0.00,5,,77
2013-2-26,75,68,60,63,58,52,83,71,47,30.77,29.81,29.71,10,9,4,18,5,25,0.01,4,Rain-Thunderstorm,209
2013-2-27,69,62,55,52,43,36,72,55,33,30.01,29.94,29.88,10,10,10,14,6,,0.00,1,,276
2013-2-28,71,58,44,45,40,37,81,61,38,30.02,29.96,29.91,10,10,9,17,5,25,0.00,1,,275